sensor_id;sensor_type;location;lat;lon;timestamp;P1;durP1;ratioP1;P2;durP2;ratioP2
71941;SDS011;59997;53.300;-6.260;2023-06-04T00:02:09;23.77;;;7.50;;
71941;SDS011;59997;53.300;-6.260;2023-06-04T00:04:35;18.87;;;7.80;;
71941;SDS011;59997;53.300;-6.260;2023-06-04T00:07:00;20.90;;;6.78;;
71941;SDS011;59997;53.300;-6.260;2023-06-04T00:09:26;24.40;;;7.67;;
71941;SDS011;59997;53.300;-6.260;2023-06-04T00:11:51;21.53;;;7.57;;
71941;SDS011;59997;53.300;-6.260;2023-06-04T00:14:17;23.77;;;7.25;;
71941;SDS011;59997;53.300;-6.260;2023-06-04T00:16:42;20.03;;;6.43;;
71941;SDS011;59997;53.300;-6.260;2023-06-04T00:19:08;21.70;;;7.07;;
71941;SDS011;59997;53.300;-6.260;2023-06-04T00:21:34;23.83;;;6.93;;
71941;SDS011;59997;53.300;-6.260;2023-06-04T00:24:00;20.13;;;6.03;;
71941;SDS011;59997;53.300;-6.260;2023-06-04T00:26:26;18.90;;;7.28;;
71941;SDS011;59997;53.300;-6.260;2023-06-04T00:28:54;21.23;;;7.87;;
71941;SDS011;59997;53.300;-6.260;2023-06-04T00:31:20;21.95;;;9.80;;
71941;SDS011;59997;53.300;-6.260;2023-06-04T00:33:46;22.20;;;9.95;;
71941;SDS011;59997;53.300;-6.260;2023-06-04T00:36:12;24.17;;;8.95;;
71941;SDS011;59997;53.300;-6.260;2023-06-04T00:38:38;17.85;;;7.38;;
71941;SDS011;59997;53.300;-6.260;2023-06-04T00:41:03;17.80;;;6.60;;
71941;SDS011;59997;53.300;-6.260;2023-06-04T00:43:29;20.77;;;7.78;;
71941;SDS011;59997;53.300;-6.260;2023-06-04T00:45:56;21.88;;;7.70;;
71941;SDS011;59997;53.300;-6.260;2023-06-04T00:48:22;19.90;;;6.93;;
71941;SDS011;59997;53.300;-6.260;2023-06-04T00:50:48;22.63;;;8.10;;
71941;SDS011;59997;53.300;-6.260;2023-06-04T00:53:14;21.15;;;7.03;;
71941;SDS011;59997;53.300;-6.260;2023-06-04T00:55:40;18.08;;;7.05;;
71941;SDS011;59997;53.300;-6.260;2023-06-04T00:58:06;16.42;;;6.30;;
71941;SDS011;59997;53.300;-6.260;2023-06-04T01:00:33;17.48;;;5.13;;
71941;SDS011;59997;53.300;-6.260;2023-06-04T01:02:59;17.08;;;6.10;;
71941;SDS011;59997;53.300;-6.260;2023-06-04T01:07:59;17.03;;;5.53;;
71941;SDS011;59997;53.300;-6.260;2023-06-04T01:10:25;20.23;;;6.05;;
71941;SDS011;59997;53.300;-6.260;2023-06-04T01:12:50;17.83;;;6.20;;
71941;SDS011;59997;53.300;-6.260;2023-06-04T01:15:16;18.02;;;6.00;;
71941;SDS011;59997;53.300;-6.260;2023-06-04T01:17:43;15.53;;;6.20;;
71941;SDS011;59997;53.300;-6.260;2023-06-04T01:25:25;17.65;;;4.80;;
71941;SDS011;59997;53.300;-6.260;2023-06-04T01:27:59;14.85;;;4.78;;
71941;SDS011;59997;53.300;-6.260;2023-06-04T01:30:29;14.48;;;5.13;;
71941;SDS011;59997;53.300;-6.260;2023-06-04T01:33:00;13.57;;;5.05;;
71941;SDS011;59997;53.300;-6.260;2023-06-04T01:35:26;13.50;;;4.95;;
71941;SDS011;59997;53.300;-6.260;2023-06-04T01:37:54;17.48;;;5.43;;
71941;SDS011;59997;53.300;-6.260;2023-06-04T01:40:20;14.85;;;5.30;;
71941;SDS011;59997;53.300;-6.260;2023-06-04T01:42:46;18.55;;;5.80;;
71941;SDS011;59997;53.300;-6.260;2023-06-04T01:45:12;18.03;;;5.67;;
71941;SDS011;59997;53.300;-6.260;2023-06-04T01:47:37;14.45;;;5.63;;
71941;SDS011;59997;53.300;-6.260;2023-06-04T01:50:06;20.00;;;6.82;;
71941;SDS011;59997;53.300;-6.260;2023-06-04T01:52:35;20.27;;;6.32;;
71941;SDS011;59997;53.300;-6.260;2023-06-04T01:55:02;18.38;;;6.18;;
71941;SDS011;59997;53.300;-6.260;2023-06-04T01:57:29;21.20;;;5.63;;
71941;SDS011;59997;53.300;-6.260;2023-06-04T01:59:55;15.20;;;5.78;;
71941;SDS011;59997;53.300;-6.260;2023-06-04T02:02:21;23.45;;;6.22;;
71941;SDS011;59997;53.300;-6.260;2023-06-04T02:04:47;16.70;;;6.53;;
71941;SDS011;59997;53.300;-6.260;2023-06-04T02:07:12;16.95;;;6.10;;
71941;SDS011;59997;53.300;-6.260;2023-06-04T02:09:45;20.67;;;6.30;;
71941;SDS011;59997;53.300;-6.260;2023-06-04T02:12:14;17.88;;;5.88;;
71941;SDS011;59997;53.300;-6.260;2023-06-04T02:14:40;16.37;;;5.17;;
71941;SDS011;59997;53.300;-6.260;2023-06-04T02:17:08;14.75;;;5.47;;
71941;SDS011;59997;53.300;-6.260;2023-06-04T02:19:42;16.50;;;5.22;;
71941;SDS011;59997;53.300;-6.260;2023-06-04T02:22:17;17.15;;;5.05;;
71941;SDS011;59997;53.300;-6.260;2023-06-04T02:24:44;20.27;;;5.57;;
71941;SDS011;59997;53.300;-6.260;2023-06-04T02:27:10;14.82;;;5.32;;
71941;SDS011;59997;53.300;-6.260;2023-06-04T02:29:37;14.35;;;4.90;;
71941;SDS011;59997;53.300;-6.260;2023-06-04T02:32:03;14.77;;;5.63;;
71941;SDS011;59997;53.300;-6.260;2023-06-04T02:34:29;18.02;;;5.28;;
71941;SDS011;59997;53.300;-6.260;2023-06-04T02:36:55;16.50;;;5.10;;
71941;SDS011;59997;53.300;-6.260;2023-06-04T02:39:21;19.83;;;5.72;;
71941;SDS011;59997;53.300;-6.260;2023-06-04T02:41:47;16.25;;;5.55;;
71941;SDS011;59997;53.300;-6.260;2023-06-04T02:44:12;14.83;;;5.30;;
71941;SDS011;59997;53.300;-6.260;2023-06-04T02:46:38;13.93;;;5.50;;
71941;SDS011;59997;53.300;-6.260;2023-06-04T02:49:04;12.60;;;4.78;;
71941;SDS011;59997;53.300;-6.260;2023-06-04T02:51:29;14.47;;;4.43;;
71941;SDS011;59997;53.300;-6.260;2023-06-04T02:53:56;14.32;;;4.15;;
71941;SDS011;59997;53.300;-6.260;2023-06-04T02:56:21;16.40;;;3.93;;
71941;SDS011;59997;53.300;-6.260;2023-06-04T02:58:50;13.70;;;3.50;;
71941;SDS011;59997;53.300;-6.260;2023-06-04T03:01:24;13.68;;;4.40;;
71941;SDS011;59997;53.300;-6.260;2023-06-04T03:03:51;16.35;;;3.85;;
71941;SDS011;59997;53.300;-6.260;2023-06-04T03:06:18;13.02;;;3.97;;
71941;SDS011;59997;53.300;-6.260;2023-06-04T03:08:46;13.38;;;4.00;;
71941;SDS011;59997;53.300;-6.260;2023-06-04T03:11:11;11.52;;;3.67;;
71941;SDS011;59997;53.300;-6.260;2023-06-04T03:13:37;13.60;;;4.03;;
71941;SDS011;59997;53.300;-6.260;2023-06-04T03:16:03;13.93;;;3.95;;
71941;SDS011;59997;53.300;-6.260;2023-06-04T03:18:34;14.00;;;3.95;;
71941;SDS011;59997;53.300;-6.260;2023-06-04T03:21:04;14.68;;;3.72;;
71941;SDS011;59997;53.300;-6.260;2023-06-04T03:23:30;15.67;;;4.10;;
71941;SDS011;59997;53.300;-6.260;2023-06-04T03:25:56;12.57;;;3.70;;
71941;SDS011;59997;53.300;-6.260;2023-06-04T03:28:22;13.18;;;4.07;;
71941;SDS011;59997;53.300;-6.260;2023-06-04T03:30:47;15.70;;;3.83;;
71941;SDS011;59997;53.300;-6.260;2023-06-04T03:33:13;12.80;;;3.60;;
71941;SDS011;59997;53.300;-6.260;2023-06-04T03:35:40;11.10;;;3.73;;
71941;SDS011;59997;53.300;-6.260;2023-06-04T03:38:06;14.40;;;4.00;;
71941;SDS011;59997;53.300;-6.260;2023-06-04T03:40:32;15.30;;;3.40;;
71941;SDS011;59997;53.300;-6.260;2023-06-04T03:42:57;12.03;;;3.50;;
71941;SDS011;59997;53.300;-6.260;2023-06-04T03:45:23;16.50;;;4.20;;
71941;SDS011;59997;53.300;-6.260;2023-06-04T03:47:48;11.75;;;3.90;;
71941;SDS011;59997;53.300;-6.260;2023-06-04T03:50:14;13.50;;;4.27;;
71941;SDS011;59997;53.300;-6.260;2023-06-04T03:52:39;13.87;;;3.50;;
71941;SDS011;59997;53.300;-6.260;2023-06-04T03:55:05;15.10;;;3.97;;
71941;SDS011;59997;53.300;-6.260;2023-06-04T03:57:30;13.27;;;3.80;;
71941;SDS011;59997;53.300;-6.260;2023-06-04T03:59:57;13.13;;;3.75;;
71941;SDS011;59997;53.300;-6.260;2023-06-04T04:02:23;15.80;;;4.00;;
71941;SDS011;59997;53.300;-6.260;2023-06-04T04:04:48;11.93;;;4.13;;
71941;SDS011;59997;53.300;-6.260;2023-06-04T04:07:14;16.10;;;4.05;;
71941;SDS011;59997;53.300;-6.260;2023-06-04T04:09:40;15.13;;;3.90;;
71941;SDS011;59997;53.300;-6.260;2023-06-04T04:12:06;13.10;;;3.85;;
71941;SDS011;59997;53.300;-6.260;2023-06-04T04:14:32;15.07;;;3.85;;
71941;SDS011;59997;53.300;-6.260;2023-06-04T04:16:58;14.97;;;4.50;;
71941;SDS011;59997;53.300;-6.260;2023-06-04T04:19:23;13.47;;;3.70;;
71941;SDS011;59997;53.300;-6.260;2023-06-04T04:21:48;15.05;;;4.00;;
71941;SDS011;59997;53.300;-6.260;2023-06-04T04:24:23;19.55;;;4.03;;
71941;SDS011;59997;53.300;-6.260;2023-06-04T04:26:50;11.25;;;3.35;;
71941;SDS011;59997;53.300;-6.260;2023-06-04T04:29:19;11.10;;;3.33;;
71941;SDS011;59997;53.300;-6.260;2023-06-04T04:31:49;14.10;;;4.15;;
71941;SDS011;59997;53.300;-6.260;2023-06-04T04:34:18;16.23;;;4.03;;
71941;SDS011;59997;53.300;-6.260;2023-06-04T04:36:46;12.40;;;3.92;;
71941;SDS011;59997;53.300;-6.260;2023-06-04T04:39:21;13.30;;;4.07;;
71941;SDS011;59997;53.300;-6.260;2023-06-04T04:41:48;12.35;;;3.50;;
71941;SDS011;59997;53.300;-6.260;2023-06-04T04:44:13;16.33;;;3.95;;
71941;SDS011;59997;53.300;-6.260;2023-06-04T04:46:39;14.90;;;3.83;;
71941;SDS011;59997;53.300;-6.260;2023-06-04T04:49:05;15.90;;;3.67;;
71941;SDS011;59997;53.300;-6.260;2023-06-04T04:51:30;14.90;;;3.80;;
71941;SDS011;59997;53.300;-6.260;2023-06-04T04:53:56;16.00;;;4.17;;
71941;SDS011;59997;53.300;-6.260;2023-06-04T04:56:21;17.63;;;4.10;;
71941;SDS011;59997;53.300;-6.260;2023-06-04T04:58:47;12.90;;;4.00;;
71941;SDS011;59997;53.300;-6.260;2023-06-04T05:01:13;17.08;;;4.00;;
71941;SDS011;59997;53.300;-6.260;2023-06-04T05:03:39;12.32;;;3.95;;
71941;SDS011;59997;53.300;-6.260;2023-06-04T05:06:05;16.83;;;4.07;;
71941;SDS011;59997;53.300;-6.260;2023-06-04T05:08:30;12.33;;;3.83;;
71941;SDS011;59997;53.300;-6.260;2023-06-04T05:10:56;15.65;;;4.00;;
71941;SDS011;59997;53.300;-6.260;2023-06-04T05:13:21;18.42;;;3.75;;
71941;SDS011;59997;53.300;-6.260;2023-06-04T05:15:47;12.63;;;3.35;;
71941;SDS011;59997;53.300;-6.260;2023-06-04T05:18:13;13.00;;;3.87;;
71941;SDS011;59997;53.300;-6.260;2023-06-04T05:20:41;13.73;;;4.43;;
71941;SDS011;59997;53.300;-6.260;2023-06-04T05:23:08;16.27;;;4.00;;
71941;SDS011;59997;53.300;-6.260;2023-06-04T05:25:33;17.00;;;4.23;;
71941;SDS011;59997;53.300;-6.260;2023-06-04T05:27:59;13.63;;;4.00;;
71941;SDS011;59997;53.300;-6.260;2023-06-04T05:30:24;15.93;;;3.85;;
71941;SDS011;59997;53.300;-6.260;2023-06-04T05:32:50;17.83;;;4.20;;
71941;SDS011;59997;53.300;-6.260;2023-06-04T05:35:15;17.00;;;4.20;;
71941;SDS011;59997;53.300;-6.260;2023-06-04T05:37:42;16.60;;;4.70;;
71941;SDS011;59997;53.300;-6.260;2023-06-04T05:40:10;14.18;;;4.35;;
71941;SDS011;59997;53.300;-6.260;2023-06-04T05:42:37;18.85;;;4.13;;
71941;SDS011;59997;53.300;-6.260;2023-06-04T05:45:04;17.70;;;4.53;;
71941;SDS011;59997;53.300;-6.260;2023-06-04T05:47:33;17.08;;;4.80;;
71941;SDS011;59997;53.300;-6.260;2023-06-04T05:49:58;16.35;;;4.30;;
71941;SDS011;59997;53.300;-6.260;2023-06-04T05:52:24;19.03;;;4.77;;
71941;SDS011;59997;53.300;-6.260;2023-06-04T05:54:50;20.95;;;5.13;;
71941;SDS011;59997;53.300;-6.260;2023-06-04T05:57:15;18.47;;;4.97;;
71941;SDS011;59997;53.300;-6.260;2023-06-04T05:59:41;16.70;;;5.10;;
71941;SDS011;59997;53.300;-6.260;2023-06-04T06:02:06;18.40;;;5.03;;
71941;SDS011;59997;53.300;-6.260;2023-06-04T06:04:32;20.63;;;5.50;;
71941;SDS011;59997;53.300;-6.260;2023-06-04T06:06:58;23.20;;;5.33;;
71941;SDS011;59997;53.300;-6.260;2023-06-04T06:09:23;28.43;;;5.60;;
71941;SDS011;59997;53.300;-6.260;2023-06-04T06:11:48;20.77;;;4.67;;
71941;SDS011;59997;53.300;-6.260;2023-06-04T06:14:14;18.20;;;4.73;;
71941;SDS011;59997;53.300;-6.260;2023-06-04T06:16:40;19.15;;;5.10;;
71941;SDS011;59997;53.300;-6.260;2023-06-04T06:19:05;20.30;;;5.40;;
71941;SDS011;59997;53.300;-6.260;2023-06-04T06:21:31;19.75;;;5.05;;
71941;SDS011;59997;53.300;-6.260;2023-06-04T06:23:56;19.27;;;5.00;;
71941;SDS011;59997;53.300;-6.260;2023-06-04T06:26:22;16.70;;;4.83;;
71941;SDS011;59997;53.300;-6.260;2023-06-04T06:28:49;17.42;;;5.18;;
71941;SDS011;59997;53.300;-6.260;2023-06-04T06:31:15;19.20;;;4.77;;
71941;SDS011;59997;53.300;-6.260;2023-06-04T06:33:40;12.15;;;4.78;;
71941;SDS011;59997;53.300;-6.260;2023-06-04T06:36:12;21.33;;;4.80;;
71941;SDS011;59997;53.300;-6.260;2023-06-04T06:38:38;13.45;;;4.50;;
71941;SDS011;59997;53.300;-6.260;2023-06-04T06:41:04;14.98;;;4.72;;
71941;SDS011;59997;53.300;-6.260;2023-06-04T06:43:30;13.65;;;4.50;;
71941;SDS011;59997;53.300;-6.260;2023-06-04T06:45:56;11.82;;;4.05;;
71941;SDS011;59997;53.300;-6.260;2023-06-04T06:48:22;11.47;;;4.03;;
71941;SDS011;59997;53.300;-6.260;2023-06-04T06:50:48;10.17;;;3.57;;
71941;SDS011;59997;53.300;-6.260;2023-06-04T06:53:13;12.05;;;3.72;;
71941;SDS011;59997;53.300;-6.260;2023-06-04T06:55:39;8.73;;;2.73;;
71941;SDS011;59997;53.300;-6.260;2023-06-04T06:58:04;9.80;;;2.63;;
71941;SDS011;59997;53.300;-6.260;2023-06-04T07:00:30;6.90;;;3.03;;
71941;SDS011;59997;53.300;-6.260;2023-06-04T07:02:55;10.20;;;2.93;;
71941;SDS011;59997;53.300;-6.260;2023-06-04T07:05:21;10.23;;;3.08;;
71941;SDS011;59997;53.300;-6.260;2023-06-04T07:07:46;9.30;;;3.20;;
71941;SDS011;59997;53.300;-6.260;2023-06-04T07:10:12;8.65;;;3.05;;
71941;SDS011;59997;53.300;-6.260;2023-06-04T07:12:39;9.18;;;3.15;;
71941;SDS011;59997;53.300;-6.260;2023-06-04T07:15:05;7.80;;;3.07;;
71941;SDS011;59997;53.300;-6.260;2023-06-04T07:17:32;9.52;;;3.20;;
71941;SDS011;59997;53.300;-6.260;2023-06-04T07:19:57;6.90;;;3.00;;
71941;SDS011;59997;53.300;-6.260;2023-06-04T07:22:23;8.53;;;3.00;;
71941;SDS011;59997;53.300;-6.260;2023-06-04T07:24:48;8.00;;;2.90;;
71941;SDS011;59997;53.300;-6.260;2023-06-04T07:27:14;7.75;;;2.80;;
71941;SDS011;59997;53.300;-6.260;2023-06-04T07:29:42;9.70;;;3.17;;
71941;SDS011;59997;53.300;-6.260;2023-06-04T07:32:08;7.63;;;2.90;;
71941;SDS011;59997;53.300;-6.260;2023-06-04T07:34:34;11.35;;;2.92;;
71941;SDS011;59997;53.300;-6.260;2023-06-04T07:37:02;11.75;;;2.97;;
71941;SDS011;59997;53.300;-6.260;2023-06-04T07:39:27;10.73;;;2.90;;
71941;SDS011;59997;53.300;-6.260;2023-06-04T07:41:53;8.97;;;2.50;;
71941;SDS011;59997;53.300;-6.260;2023-06-04T07:44:19;9.30;;;3.10;;
71941;SDS011;59997;53.300;-6.260;2023-06-04T07:46:44;9.87;;;2.70;;
71941;SDS011;59997;53.300;-6.260;2023-06-04T07:49:09;11.18;;;3.08;;
71941;SDS011;59997;53.300;-6.260;2023-06-04T07:51:35;7.23;;;2.47;;
71941;SDS011;59997;53.300;-6.260;2023-06-04T07:54:02;11.00;;;2.63;;
71941;SDS011;59997;53.300;-6.260;2023-06-04T07:56:27;9.77;;;2.70;;
71941;SDS011;59997;53.300;-6.260;2023-06-04T07:58:53;10.73;;;3.10;;
71941;SDS011;59997;53.300;-6.260;2023-06-04T08:01:19;7.90;;;2.27;;
71941;SDS011;59997;53.300;-6.260;2023-06-04T08:03:44;9.07;;;2.83;;
71941;SDS011;59997;53.300;-6.260;2023-06-04T08:06:10;7.30;;;2.40;;
71941;SDS011;59997;53.300;-6.260;2023-06-04T08:08:36;9.07;;;2.47;;
71941;SDS011;59997;53.300;-6.260;2023-06-04T08:11:01;10.00;;;2.67;;
71941;SDS011;59997;53.300;-6.260;2023-06-04T08:13:27;8.45;;;2.50;;
71941;SDS011;59997;53.300;-6.260;2023-06-04T08:15:53;8.80;;;2.40;;
71941;SDS011;59997;53.300;-6.260;2023-06-04T08:18:18;11.03;;;2.97;;
71941;SDS011;59997;53.300;-6.260;2023-06-04T08:20:44;8.97;;;2.40;;
71941;SDS011;59997;53.300;-6.260;2023-06-04T08:23:10;9.43;;;2.70;;
71941;SDS011;59997;53.300;-6.260;2023-06-04T08:25:35;12.00;;;2.92;;
71941;SDS011;59997;53.300;-6.260;2023-06-04T08:28:01;10.43;;;2.80;;
71941;SDS011;59997;53.300;-6.260;2023-06-04T08:30:26;8.73;;;2.92;;
71941;SDS011;59997;53.300;-6.260;2023-06-04T08:32:52;8.87;;;2.30;;
71941;SDS011;59997;53.300;-6.260;2023-06-04T08:35:18;8.63;;;2.42;;
71941;SDS011;59997;53.300;-6.260;2023-06-04T08:37:44;8.65;;;2.83;;
71941;SDS011;59997;53.300;-6.260;2023-06-04T08:40:09;7.73;;;2.67;;
71941;SDS011;59997;53.300;-6.260;2023-06-04T08:42:43;11.75;;;2.90;;
71941;SDS011;59997;53.300;-6.260;2023-06-04T08:45:13;9.30;;;2.58;;
71941;SDS011;59997;53.300;-6.260;2023-06-04T08:47:44;10.93;;;3.13;;
71941;SDS011;59997;53.300;-6.260;2023-06-04T08:50:14;8.18;;;3.00;;
71941;SDS011;59997;53.300;-6.260;2023-06-04T08:52:42;7.57;;;3.10;;
71941;SDS011;59997;53.300;-6.260;2023-06-04T08:55:08;10.63;;;3.20;;
71941;SDS011;59997;53.300;-6.260;2023-06-04T08:57:36;8.15;;;3.50;;
71941;SDS011;59997;53.300;-6.260;2023-06-04T09:00:02;8.45;;;3.33;;
71941;SDS011;59997;53.300;-6.260;2023-06-04T09:02:30;7.40;;;2.60;;
71941;SDS011;59997;53.300;-6.260;2023-06-04T09:04:55;8.90;;;2.97;;
71941;SDS011;59997;53.300;-6.260;2023-06-04T09:07:22;11.75;;;3.28;;
71941;SDS011;59997;53.300;-6.260;2023-06-04T09:09:48;7.45;;;3.50;;
71941;SDS011;59997;53.300;-6.260;2023-06-04T09:12:17;9.30;;;2.72;;
71941;SDS011;59997;53.300;-6.260;2023-06-04T09:14:48;7.22;;;2.97;;
71941;SDS011;59997;53.300;-6.260;2023-06-04T09:17:15;7.53;;;3.13;;
71941;SDS011;59997;53.300;-6.260;2023-06-04T09:19:46;10.15;;;3.22;;
71941;SDS011;59997;53.300;-6.260;2023-06-04T09:22:11;7.57;;;3.60;;
71941;SDS011;59997;53.300;-6.260;2023-06-04T09:24:43;8.75;;;2.80;;
71941;SDS011;59997;53.300;-6.260;2023-06-04T09:27:18;7.95;;;2.92;;
71941;SDS011;59997;53.300;-6.260;2023-06-04T09:29:54;8.80;;;2.53;;
71941;SDS011;59997;53.300;-6.260;2023-06-04T09:32:29;8.07;;;2.70;;
71941;SDS011;59997;53.300;-6.260;2023-06-04T09:34:56;8.50;;;2.80;;
71941;SDS011;59997;53.300;-6.260;2023-06-04T09:37:34;8.10;;;2.85;;
71941;SDS011;59997;53.300;-6.260;2023-06-04T09:40:00;7.60;;;3.10;;
71941;SDS011;59997;53.300;-6.260;2023-06-04T09:42:25;7.50;;;2.70;;
71941;SDS011;59997;53.300;-6.260;2023-06-04T09:44:51;7.50;;;3.00;;
71941;SDS011;59997;53.300;-6.260;2023-06-04T09:47:17;9.23;;;2.67;;
71941;SDS011;59997;53.300;-6.260;2023-06-04T09:49:42;7.23;;;2.33;;
71941;SDS011;59997;53.300;-6.260;2023-06-04T09:52:08;6.47;;;2.75;;
71941;SDS011;59997;53.300;-6.260;2023-06-04T09:54:37;7.95;;;2.85;;
71941;SDS011;59997;53.300;-6.260;2023-06-04T09:57:13;7.05;;;3.05;;
71941;SDS011;59997;53.300;-6.260;2023-06-04T09:59:41;6.10;;;2.60;;
71941;SDS011;59997;53.300;-6.260;2023-06-04T10:02:12;6.90;;;2.50;;
71941;SDS011;59997;53.300;-6.260;2023-06-04T10:04:40;9.70;;;3.05;;
71941;SDS011;59997;53.300;-6.260;2023-06-04T10:07:08;8.20;;;3.40;;
71941;SDS011;59997;53.300;-6.260;2023-06-04T10:09:38;7.22;;;2.88;;
71941;SDS011;59997;53.300;-6.260;2023-06-04T10:12:10;7.30;;;2.40;;
71941;SDS011;59997;53.300;-6.260;2023-06-04T10:15:22;6.75;;;2.83;;
71941;SDS011;59997;53.300;-6.260;2023-06-04T10:17:35;7.07;;;3.17;;
71941;SDS011;59997;53.300;-6.260;2023-06-04T10:20:01;8.15;;;3.50;;
71941;SDS011;59997;53.300;-6.260;2023-06-04T10:22:30;7.23;;;2.83;;
71941;SDS011;59997;53.300;-6.260;2023-06-04T10:24:57;7.70;;;2.88;;
71941;SDS011;59997;53.300;-6.260;2023-06-04T10:27:23;6.88;;;2.63;;
71941;SDS011;59997;53.300;-6.260;2023-06-04T10:29:50;8.25;;;2.88;;
71941;SDS011;59997;53.300;-6.260;2023-06-04T10:32:16;9.43;;;3.05;;
71941;SDS011;59997;53.300;-6.260;2023-06-04T10:34:42;7.67;;;2.90;;
71941;SDS011;59997;53.300;-6.260;2023-06-04T10:37:29;7.10;;;2.63;;
71941;SDS011;59997;53.300;-6.260;2023-06-04T10:39:57;7.57;;;2.65;;
71941;SDS011;59997;53.300;-6.260;2023-06-04T10:42:24;8.27;;;2.53;;
71941;SDS011;59997;53.300;-6.260;2023-06-04T10:44:51;6.93;;;2.92;;
71941;SDS011;59997;53.300;-6.260;2023-06-04T10:47:24;6.35;;;2.80;;
71941;SDS011;59997;53.300;-6.260;2023-06-04T10:49:51;8.13;;;2.67;;
71941;SDS011;59997;53.300;-6.260;2023-06-04T10:52:18;8.27;;;2.42;;
71941;SDS011;59997;53.300;-6.260;2023-06-04T10:54:44;7.37;;;2.67;;
71941;SDS011;59997;53.300;-6.260;2023-06-04T10:57:16;7.20;;;2.28;;
71941;SDS011;59997;53.300;-6.260;2023-06-04T10:59:55;7.07;;;2.45;;
71941;SDS011;59997;53.300;-6.260;2023-06-04T11:02:22;7.97;;;2.70;;
71941;SDS011;59997;53.300;-6.260;2023-06-04T11:04:58;7.07;;;2.77;;
71941;SDS011;59997;53.300;-6.260;2023-06-04T11:07:26;6.53;;;2.50;;
71941;SDS011;59997;53.300;-6.260;2023-06-04T11:09:52;9.30;;;2.72;;
71941;SDS011;59997;53.300;-6.260;2023-06-04T11:12:18;6.50;;;2.63;;
71941;SDS011;59997;53.300;-6.260;2023-06-04T11:15:04;6.43;;;2.50;;
71941;SDS011;59997;53.300;-6.260;2023-06-04T11:17:29;6.97;;;2.25;;
71941;SDS011;59997;53.300;-6.260;2023-06-04T11:19:55;7.22;;;2.25;;
71941;SDS011;59997;53.300;-6.260;2023-06-04T11:22:21;6.60;;;1.93;;
71941;SDS011;59997;53.300;-6.260;2023-06-04T11:24:47;6.50;;;2.20;;
71941;SDS011;59997;53.300;-6.260;2023-06-04T11:27:13;5.80;;;1.90;;
71941;SDS011;59997;53.300;-6.260;2023-06-04T11:29:39;6.20;;;1.98;;
71941;SDS011;59997;53.300;-6.260;2023-06-04T11:32:04;6.20;;;2.40;;
71941;SDS011;59997;53.300;-6.260;2023-06-04T11:34:30;5.03;;;1.70;;
71941;SDS011;59997;53.300;-6.260;2023-06-04T11:37:07;5.38;;;2.10;;
71941;SDS011;59997;53.300;-6.260;2023-06-04T11:39:34;5.97;;;2.10;;
71941;SDS011;59997;53.300;-6.260;2023-06-04T11:42:06;6.03;;;1.73;;
71941;SDS011;59997;53.300;-6.260;2023-06-04T11:44:32;6.72;;;2.35;;
71941;SDS011;59997;53.300;-6.260;2023-06-04T11:46:58;7.32;;;2.10;;
71941;SDS011;59997;53.300;-6.260;2023-06-04T11:49:24;5.90;;;2.43;;
71941;SDS011;59997;53.300;-6.260;2023-06-04T11:51:51;7.03;;;2.17;;
71941;SDS011;59997;53.300;-6.260;2023-06-04T11:54:18;6.70;;;2.33;;
71941;SDS011;59997;53.300;-6.260;2023-06-04T11:56:45;6.38;;;2.38;;
71941;SDS011;59997;53.300;-6.260;2023-06-04T11:59:13;6.38;;;2.30;;
71941;SDS011;59997;53.300;-6.260;2023-06-04T12:01:40;6.53;;;2.47;;
71941;SDS011;59997;53.300;-6.260;2023-06-04T12:04:17;6.70;;;2.63;;
71941;SDS011;59997;53.300;-6.260;2023-06-04T12:06:54;6.40;;;2.47;;
71941;SDS011;59997;53.300;-6.260;2023-06-04T12:09:26;5.95;;;2.25;;
71941;SDS011;59997;53.300;-6.260;2023-06-04T12:11:57;7.18;;;2.47;;
71941;SDS011;59997;53.300;-6.260;2023-06-04T12:14:24;8.10;;;2.40;;
71941;SDS011;59997;53.300;-6.260;2023-06-04T12:16:57;6.13;;;2.65;;
71941;SDS011;59997;53.300;-6.260;2023-06-04T12:19:24;6.37;;;2.03;;
71941;SDS011;59997;53.300;-6.260;2023-06-04T12:22:04;6.57;;;2.13;;
71941;SDS011;59997;53.300;-6.260;2023-06-04T12:24:33;8.52;;;2.30;;
71941;SDS011;59997;53.300;-6.260;2023-06-04T12:27:06;6.35;;;2.17;;
71941;SDS011;59997;53.300;-6.260;2023-06-04T12:29:36;6.60;;;2.38;;
71941;SDS011;59997;53.300;-6.260;2023-06-04T12:32:08;6.07;;;1.90;;
71941;SDS011;59997;53.300;-6.260;2023-06-04T12:34:36;6.50;;;1.90;;
71941;SDS011;59997;53.300;-6.260;2023-06-04T12:37:02;6.82;;;2.50;;
71941;SDS011;59997;53.300;-6.260;2023-06-04T12:39:31;7.25;;;2.15;;
71941;SDS011;59997;53.300;-6.260;2023-06-04T12:41:57;7.32;;;2.50;;
71941;SDS011;59997;53.300;-6.260;2023-06-04T12:44:22;6.87;;;2.70;;
71941;SDS011;59997;53.300;-6.260;2023-06-04T12:46:48;6.80;;;2.50;;
71941;SDS011;59997;53.300;-6.260;2023-06-04T12:49:14;6.88;;;2.33;;
71941;SDS011;59997;53.300;-6.260;2023-06-04T12:51:40;6.68;;;2.47;;
71941;SDS011;59997;53.300;-6.260;2023-06-04T12:54:05;8.33;;;2.40;;
71941;SDS011;59997;53.300;-6.260;2023-06-04T12:56:31;8.80;;;2.70;;
71941;SDS011;59997;53.300;-6.260;2023-06-04T12:58:56;6.68;;;2.53;;
71941;SDS011;59997;53.300;-6.260;2023-06-04T13:01:23;5.73;;;2.27;;
71941;SDS011;59997;53.300;-6.260;2023-06-04T13:03:48;7.63;;;2.97;;
71941;SDS011;59997;53.300;-6.260;2023-06-04T13:06:14;6.57;;;2.33;;
71941;SDS011;59997;53.300;-6.260;2023-06-04T13:08:40;8.18;;;2.42;;
71941;SDS011;59997;53.300;-6.260;2023-06-04T13:11:05;6.20;;;2.10;;
71941;SDS011;59997;53.300;-6.260;2023-06-04T13:13:31;7.72;;;2.55;;
71941;SDS011;59997;53.300;-6.260;2023-06-04T13:15:57;5.90;;;2.20;;
71941;SDS011;59997;53.300;-6.260;2023-06-04T13:18:22;6.30;;;2.42;;
71941;SDS011;59997;53.300;-6.260;2023-06-04T13:20:48;6.33;;;2.20;;
71941;SDS011;59997;53.300;-6.260;2023-06-04T13:23:16;7.75;;;2.17;;
71941;SDS011;59997;53.300;-6.260;2023-06-04T13:25:42;6.43;;;2.10;;
71941;SDS011;59997;53.300;-6.260;2023-06-04T13:28:07;9.20;;;2.80;;
71941;SDS011;59997;53.300;-6.260;2023-06-04T13:30:36;6.67;;;2.47;;
71941;SDS011;59997;53.300;-6.260;2023-06-04T13:33:02;6.07;;;2.38;;
71941;SDS011;59997;53.300;-6.260;2023-06-04T13:35:28;6.22;;;2.20;;
71941;SDS011;59997;53.300;-6.260;2023-06-04T13:37:54;6.43;;;2.43;;
71941;SDS011;59997;53.300;-6.260;2023-06-04T13:40:20;6.82;;;2.17;;
71941;SDS011;59997;53.300;-6.260;2023-06-04T13:42:45;6.00;;;2.23;;
71941;SDS011;59997;53.300;-6.260;2023-06-04T13:45:11;8.00;;;2.53;;
71941;SDS011;59997;53.300;-6.260;2023-06-04T13:47:37;6.43;;;2.57;;
71941;SDS011;59997;53.300;-6.260;2023-06-04T13:50:02;7.67;;;2.20;;
71941;SDS011;59997;53.300;-6.260;2023-06-04T13:52:29;7.40;;;2.47;;
71941;SDS011;59997;53.300;-6.260;2023-06-04T13:54:55;6.80;;;1.90;;
71941;SDS011;59997;53.300;-6.260;2023-06-04T13:57:20;6.23;;;2.00;;
71941;SDS011;59997;53.300;-6.260;2023-06-04T13:59:46;8.73;;;2.05;;
71941;SDS011;59997;53.300;-6.260;2023-06-04T14:02:12;7.45;;;2.00;;
71941;SDS011;59997;53.300;-6.260;2023-06-04T14:04:37;7.20;;;2.13;;
71941;SDS011;59997;53.300;-6.260;2023-06-04T14:07:04;9.27;;;2.33;;
71941;SDS011;59997;53.300;-6.260;2023-06-04T14:09:31;6.75;;;1.90;;
71941;SDS011;59997;53.300;-6.260;2023-06-04T14:11:57;6.30;;;2.10;;
71941;SDS011;59997;53.300;-6.260;2023-06-04T14:14:23;6.30;;;2.13;;
71941;SDS011;59997;53.300;-6.260;2023-06-04T14:16:49;6.90;;;1.90;;
71941;SDS011;59997;53.300;-6.260;2023-06-04T14:19:14;6.28;;;1.95;;
71941;SDS011;59997;53.300;-6.260;2023-06-04T14:21:42;6.53;;;2.00;;
71941;SDS011;59997;53.300;-6.260;2023-06-04T14:24:08;6.13;;;2.20;;
71941;SDS011;59997;53.300;-6.260;2023-06-04T14:26:34;7.20;;;2.30;;
71941;SDS011;59997;53.300;-6.260;2023-06-04T14:29:00;7.37;;;2.00;;
71941;SDS011;59997;53.300;-6.260;2023-06-04T14:31:26;7.90;;;2.15;;
71941;SDS011;59997;53.300;-6.260;2023-06-04T14:33:52;7.00;;;2.37;;
71941;SDS011;59997;53.300;-6.260;2023-06-04T14:36:17;8.70;;;1.90;;